Terminal Aerodrome Forecast
Issued by NWS

Home | Current Version | Previous Version | Text Only | Print | Product List | Glossary On
Versions: 1 2 3 4 5 6 7 8 9 10 11 12 13 14 15 16 17 18 19 20 21 22 23
000
FTUS43 KGLD 311120
TAFMCK
TAF
KMCK 311120Z 3112/0112 VRB03KT P6SM BKN006
      TEMPO 3112/3115 3SM BR BKN005
     FM311600 09005KT P6SM VCSH BKN015
     FM312000 13008KT P6SM BKN035
     FM010600 VRB03KT 5SM BR BKN020
      TEMPO 0109/0112 1/2SM FG BKN005=

USA.gov is the U.S. government's official web portal to all federal, state and local government web resources and services.